sensor_id;sensor_type;location;lat;lon;timestamp;P1;durP1;ratioP1;P2;durP2;ratioP2
1360;SDS011;674;45.552;-122.600;2023-11-19T00:01:38;6.43;;;5.77;;
1360;SDS011;674;45.552;-122.600;2023-11-19T00:04:07;6.70;;;6.00;;
1360;SDS011;674;45.552;-122.600;2023-11-19T00:06:35;7.70;;;6.73;;
1360;SDS011;674;45.552;-122.600;2023-11-19T00:09:04;7.17;;;6.40;;
1360;SDS011;674;45.552;-122.600;2023-11-19T00:11:33;7.27;;;6.13;;
1360;SDS011;674;45.552;-122.600;2023-11-19T00:14:02;7.30;;;6.00;;
1360;SDS011;674;45.552;-122.600;2023-11-19T00:16:31;7.57;;;5.80;;
1360;SDS011;674;45.552;-122.600;2023-11-19T00:18:59;7.60;;;6.90;;
1360;SDS011;674;45.552;-122.600;2023-11-19T00:21:28;6.17;;;5.50;;
1360;SDS011;674;45.552;-122.600;2023-11-19T00:23:57;6.97;;;6.03;;
1360;SDS011;674;45.552;-122.600;2023-11-19T00:26:26;7.17;;;5.80;;
1360;SDS011;674;45.552;-122.600;2023-11-19T00:28:54;6.87;;;5.77;;
1360;SDS011;674;45.552;-122.600;2023-11-19T00:31:23;7.70;;;6.40;;
1360;SDS011;674;45.552;-122.600;2023-11-19T00:33:55;6.97;;;6.00;;
1360;SDS011;674;45.552;-122.600;2023-11-19T00:36:24;8.13;;;6.67;;
1360;SDS011;674;45.552;-122.600;2023-11-19T00:38:52;7.73;;;6.23;;
1360;SDS011;674;45.552;-122.600;2023-11-19T00:41:21;8.37;;;6.53;;
1360;SDS011;674;45.552;-122.600;2023-11-19T00:43:50;7.67;;;6.00;;
1360;SDS011;674;45.552;-122.600;2023-11-19T00:46:18;10.57;;;7.60;;
1360;SDS011;674;45.552;-122.600;2023-11-19T00:48:47;9.10;;;6.60;;
1360;SDS011;674;45.552;-122.600;2023-11-19T00:51:16;7.20;;;6.50;;
1360;SDS011;674;45.552;-122.600;2023-11-19T00:53:44;9.27;;;7.77;;
1360;SDS011;674;45.552;-122.600;2023-11-19T00:56:13;9.07;;;7.30;;
1360;SDS011;674;45.552;-122.600;2023-11-19T00:58:42;9.20;;;7.17;;
1360;SDS011;674;45.552;-122.600;2023-11-19T01:01:13;8.37;;;6.93;;
1360;SDS011;674;45.552;-122.600;2023-11-19T01:03:41;7.00;;;6.30;;
1360;SDS011;674;45.552;-122.600;2023-11-19T01:06:11;8.67;;;7.33;;
1360;SDS011;674;45.552;-122.600;2023-11-19T01:08:39;7.80;;;7.00;;
1360;SDS011;674;45.552;-122.600;2023-11-19T01:11:19;9.70;;;7.87;;
1360;SDS011;674;45.552;-122.600;2023-11-19T01:13:48;8.80;;;7.63;;
1360;SDS011;674;45.552;-122.600;2023-11-19T01:16:17;7.80;;;7.00;;
1360;SDS011;674;45.552;-122.600;2023-11-19T01:18:47;8.93;;;7.97;;
1360;SDS011;674;45.552;-122.600;2023-11-19T01:21:16;8.40;;;7.53;;
1360;SDS011;674;45.552;-122.600;2023-11-19T01:23:45;9.67;;;7.90;;
1360;SDS011;674;45.552;-122.600;2023-11-19T01:26:14;8.63;;;7.33;;
1360;SDS011;674;45.552;-122.600;2023-11-19T01:28:42;11.53;;;8.00;;
1360;SDS011;674;45.552;-122.600;2023-11-19T01:31:15;11.83;;;8.40;;
1360;SDS011;674;45.552;-122.600;2023-11-19T01:33:43;10.73;;;9.63;;
1360;SDS011;674;45.552;-122.600;2023-11-19T01:36:13;11.37;;;9.00;;
1360;SDS011;674;45.552;-122.600;2023-11-19T01:38:42;10.53;;;8.60;;
1360;SDS011;674;45.552;-122.600;2023-11-19T01:41:12;12.00;;;9.97;;
1360;SDS011;674;45.552;-122.600;2023-11-19T01:43:40;17.13;;;11.60;;
1360;SDS011;674;45.552;-122.600;2023-11-19T01:46:09;13.47;;;9.57;;
1360;SDS011;674;45.552;-122.600;2023-11-19T01:48:41;11.30;;;8.67;;
1360;SDS011;674;45.552;-122.600;2023-11-19T01:51:13;13.73;;;9.23;;
1360;SDS011;674;45.552;-122.600;2023-11-19T01:53:44;13.20;;;10.23;;
1360;SDS011;674;45.552;-122.600;2023-11-19T01:56:13;10.90;;;9.73;;
1360;SDS011;674;45.552;-122.600;2023-11-19T01:58:43;10.50;;;9.40;;
1360;SDS011;674;45.552;-122.600;2023-11-19T02:01:13;10.63;;;9.17;;
1360;SDS011;674;45.552;-122.600;2023-11-19T02:03:42;11.80;;;10.27;;
1360;SDS011;674;45.552;-122.600;2023-11-19T02:06:11;12.00;;;9.33;;
1360;SDS011;674;45.552;-122.600;2023-11-19T02:08:40;12.53;;;10.73;;
1360;SDS011;674;45.552;-122.600;2023-11-19T02:11:10;14.57;;;10.90;;
1360;SDS011;674;45.552;-122.600;2023-11-19T02:13:40;15.27;;;10.20;;
1360;SDS011;674;45.552;-122.600;2023-11-19T02:16:09;13.90;;;10.20;;
1360;SDS011;674;45.552;-122.600;2023-11-19T02:18:38;14.30;;;11.50;;
1360;SDS011;674;45.552;-122.600;2023-11-19T02:21:07;10.90;;;9.27;;
1360;SDS011;674;45.552;-122.600;2023-11-19T02:23:37;12.67;;;10.93;;
1360;SDS011;674;45.552;-122.600;2023-11-19T02:28:56;12.47;;;10.37;;
1360;SDS011;674;45.552;-122.600;2023-11-19T02:31:25;12.27;;;9.87;;
1360;SDS011;674;45.552;-122.600;2023-11-19T02:33:54;13.07;;;9.43;;
1360;SDS011;674;45.552;-122.600;2023-11-19T02:36:23;10.63;;;9.20;;
1360;SDS011;674;45.552;-122.600;2023-11-19T02:38:52;11.20;;;9.93;;
1360;SDS011;674;45.552;-122.600;2023-11-19T02:41:20;12.53;;;11.23;;
1360;SDS011;674;45.552;-122.600;2023-11-19T02:43:49;11.60;;;10.17;;
1360;SDS011;674;45.552;-122.600;2023-11-19T02:46:17;11.50;;;10.30;;
1360;SDS011;674;45.552;-122.600;2023-11-19T02:48:46;14.13;;;10.47;;
1360;SDS011;674;45.552;-122.600;2023-11-19T02:51:15;10.43;;;9.23;;
1360;SDS011;674;45.552;-122.600;2023-11-19T02:53:46;11.00;;;9.40;;
1360;SDS011;674;45.552;-122.600;2023-11-19T02:56:15;12.10;;;10.50;;
1360;SDS011;674;45.552;-122.600;2023-11-19T02:58:47;13.67;;;10.07;;
1360;SDS011;674;45.552;-122.600;2023-11-19T03:01:25;12.50;;;9.90;;
1360;SDS011;674;45.552;-122.600;2023-11-19T03:03:58;11.43;;;9.40;;
1360;SDS011;674;45.552;-122.600;2023-11-19T03:06:31;15.53;;;10.80;;
1360;SDS011;674;45.552;-122.600;2023-11-19T03:09:00;10.63;;;9.47;;
1360;SDS011;674;45.552;-122.600;2023-11-19T03:11:33;9.60;;;8.60;;
1360;SDS011;674;45.552;-122.600;2023-11-19T03:14:02;10.03;;;8.93;;
1360;SDS011;674;45.552;-122.600;2023-11-19T03:16:30;11.27;;;9.53;;
1360;SDS011;674;45.552;-122.600;2023-11-19T03:19:00;10.40;;;9.30;;
1360;SDS011;674;45.552;-122.600;2023-11-19T03:21:29;11.80;;;8.93;;
1360;SDS011;674;45.552;-122.600;2023-11-19T03:23:58;11.97;;;9.20;;
1360;SDS011;674;45.552;-122.600;2023-11-19T03:26:30;11.77;;;9.47;;
1360;SDS011;674;45.552;-122.600;2023-11-19T03:29:02;13.50;;;10.20;;
1360;SDS011;674;45.552;-122.600;2023-11-19T03:31:30;9.67;;;8.70;;
1360;SDS011;674;45.552;-122.600;2023-11-19T03:33:59;9.73;;;8.13;;
1360;SDS011;674;45.552;-122.600;2023-11-19T03:36:36;12.87;;;9.83;;
1360;SDS011;674;45.552;-122.600;2023-11-19T03:39:05;12.77;;;9.83;;
1360;SDS011;674;45.552;-122.600;2023-11-19T03:41:34;11.83;;;10.03;;
1360;SDS011;674;45.552;-122.600;2023-11-19T03:44:05;11.77;;;9.90;;
1360;SDS011;674;45.552;-122.600;2023-11-19T03:46:34;10.33;;;8.97;;
1360;SDS011;674;45.552;-122.600;2023-11-19T03:49:03;10.50;;;9.40;;
1360;SDS011;674;45.552;-122.600;2023-11-19T03:51:34;11.33;;;9.37;;
1360;SDS011;674;45.552;-122.600;2023-11-19T03:54:03;11.57;;;9.60;;
1360;SDS011;674;45.552;-122.600;2023-11-19T03:56:32;13.93;;;9.10;;
1360;SDS011;674;45.552;-122.600;2023-11-19T03:59:00;11.90;;;9.67;;
1360;SDS011;674;45.552;-122.600;2023-11-19T04:01:29;12.93;;;10.03;;
1360;SDS011;674;45.552;-122.600;2023-11-19T04:03:58;11.20;;;9.90;;
1360;SDS011;674;45.552;-122.600;2023-11-19T04:06:27;11.20;;;9.70;;
1360;SDS011;674;45.552;-122.600;2023-11-19T04:08:55;11.63;;;8.33;;
1360;SDS011;674;45.552;-122.600;2023-11-19T04:11:24;12.50;;;9.70;;
1360;SDS011;674;45.552;-122.600;2023-11-19T04:13:53;9.73;;;8.50;;
1360;SDS011;674;45.552;-122.600;2023-11-19T04:16:30;10.00;;;8.80;;
1360;SDS011;674;45.552;-122.600;2023-11-19T04:18:59;10.33;;;7.30;;
1360;SDS011;674;45.552;-122.600;2023-11-19T04:21:28;8.30;;;7.40;;
1360;SDS011;674;45.552;-122.600;2023-11-19T04:23:57;10.40;;;8.40;;
1360;SDS011;674;45.552;-122.600;2023-11-19T04:26:26;10.10;;;8.47;;
1360;SDS011;674;45.552;-122.600;2023-11-19T04:28:54;10.00;;;7.80;;
1360;SDS011;674;45.552;-122.600;2023-11-19T04:31:28;8.70;;;7.20;;
1360;SDS011;674;45.552;-122.600;2023-11-19T04:33:59;9.00;;;6.63;;
1360;SDS011;674;45.552;-122.600;2023-11-19T04:36:27;7.83;;;6.90;;
1360;SDS011;674;45.552;-122.600;2023-11-19T04:38:57;8.30;;;6.73;;
1360;SDS011;674;45.552;-122.600;2023-11-19T04:41:27;10.13;;;7.87;;
1360;SDS011;674;45.552;-122.600;2023-11-19T04:43:55;6.70;;;6.00;;
1360;SDS011;674;45.552;-122.600;2023-11-19T04:46:24;11.20;;;8.40;;
1360;SDS011;674;45.552;-122.600;2023-11-19T04:48:53;6.17;;;5.53;;
1360;SDS011;674;45.552;-122.600;2023-11-19T04:51:21;7.00;;;6.20;;
1360;SDS011;674;45.552;-122.600;2023-11-19T04:53:50;7.63;;;6.17;;
1360;SDS011;674;45.552;-122.600;2023-11-19T04:56:18;8.73;;;7.57;;
1360;SDS011;674;45.552;-122.600;2023-11-19T04:58:49;9.13;;;8.20;;
1360;SDS011;674;45.552;-122.600;2023-11-19T05:01:18;8.33;;;7.00;;
1360;SDS011;674;45.552;-122.600;2023-11-19T05:03:46;13.27;;;10.00;;
1360;SDS011;674;45.552;-122.600;2023-11-19T05:06:15;13.03;;;8.47;;
1360;SDS011;674;45.552;-122.600;2023-11-19T05:08:44;14.40;;;12.10;;
1360;SDS011;674;45.552;-122.600;2023-11-19T05:11:13;10.20;;;9.13;;
1360;SDS011;674;45.552;-122.600;2023-11-19T05:13:45;11.30;;;8.57;;
1360;SDS011;674;45.552;-122.600;2023-11-19T05:16:14;9.53;;;8.50;;
1360;SDS011;674;45.552;-122.600;2023-11-19T05:18:42;10.80;;;8.70;;
1360;SDS011;674;45.552;-122.600;2023-11-19T05:21:12;8.97;;;7.40;;
1360;SDS011;674;45.552;-122.600;2023-11-19T05:23:41;8.70;;;7.50;;
1360;SDS011;674;45.552;-122.600;2023-11-19T05:26:09;13.20;;;11.30;;
1360;SDS011;674;45.552;-122.600;2023-11-19T05:28:45;11.90;;;10.57;;
1360;SDS011;674;45.552;-122.600;2023-11-19T05:31:14;13.07;;;11.40;;
1360;SDS011;674;45.552;-122.600;2023-11-19T05:33:43;13.07;;;10.87;;
1360;SDS011;674;45.552;-122.600;2023-11-19T05:36:12;14.20;;;9.90;;
1360;SDS011;674;45.552;-122.600;2023-11-19T05:38:41;10.07;;;9.17;;
1360;SDS011;674;45.552;-122.600;2023-11-19T05:41:09;10.17;;;9.17;;
1360;SDS011;674;45.552;-122.600;2023-11-19T05:43:38;10.07;;;8.53;;
1360;SDS011;674;45.552;-122.600;2023-11-19T05:46:08;16.67;;;13.67;;
1360;SDS011;674;45.552;-122.600;2023-11-19T05:48:39;11.90;;;10.40;;
1360;SDS011;674;45.552;-122.600;2023-11-19T05:51:07;14.73;;;12.90;;
1360;SDS011;674;45.552;-122.600;2023-11-19T05:53:36;17.87;;;14.20;;
1360;SDS011;674;45.552;-122.600;2023-11-19T05:56:05;20.87;;;18.60;;
1360;SDS011;674;45.552;-122.600;2023-11-19T05:58:36;25.63;;;23.00;;
1360;SDS011;674;45.552;-122.600;2023-11-19T06:01:07;21.77;;;19.50;;
1360;SDS011;674;45.552;-122.600;2023-11-19T06:03:36;21.33;;;19.10;;
1360;SDS011;674;45.552;-122.600;2023-11-19T06:06:05;20.80;;;17.40;;
1360;SDS011;674;45.552;-122.600;2023-11-19T06:08:34;21.70;;;16.83;;
1360;SDS011;674;45.552;-122.600;2023-11-19T06:11:03;18.70;;;16.33;;
1360;SDS011;674;45.552;-122.600;2023-11-19T06:13:31;22.07;;;17.83;;
1360;SDS011;674;45.552;-122.600;2023-11-19T06:16:00;22.67;;;17.67;;
1360;SDS011;674;45.552;-122.600;2023-11-19T06:18:30;16.20;;;14.27;;
1360;SDS011;674;45.552;-122.600;2023-11-19T06:20:59;17.33;;;15.53;;
1360;SDS011;674;45.552;-122.600;2023-11-19T06:23:27;24.17;;;19.00;;
1360;SDS011;674;45.552;-122.600;2023-11-19T06:25:56;16.80;;;14.93;;
1360;SDS011;674;45.552;-122.600;2023-11-19T06:28:24;16.77;;;14.40;;
1360;SDS011;674;45.552;-122.600;2023-11-19T06:30:53;20.77;;;17.33;;
1360;SDS011;674;45.552;-122.600;2023-11-19T06:33:22;17.13;;;14.50;;
1360;SDS011;674;45.552;-122.600;2023-11-19T06:35:50;24.00;;;19.70;;
1360;SDS011;674;45.552;-122.600;2023-11-19T06:38:19;15.60;;;14.10;;
1360;SDS011;674;45.552;-122.600;2023-11-19T06:40:48;18.80;;;16.50;;
1360;SDS011;674;45.552;-122.600;2023-11-19T06:43:20;17.47;;;15.67;;
1360;SDS011;674;45.552;-122.600;2023-11-19T06:45:49;18.47;;;15.80;;
1360;SDS011;674;45.552;-122.600;2023-11-19T06:48:17;24.83;;;19.23;;
1360;SDS011;674;45.552;-122.600;2023-11-19T06:50:46;25.47;;;22.30;;
1360;SDS011;674;45.552;-122.600;2023-11-19T06:53:15;36.60;;;26.77;;
1360;SDS011;674;45.552;-122.600;2023-11-19T06:55:43;37.50;;;27.97;;
1360;SDS011;674;45.552;-122.600;2023-11-19T06:58:12;24.70;;;21.13;;
1360;SDS011;674;45.552;-122.600;2023-11-19T07:00:40;23.17;;;20.07;;
1360;SDS011;674;45.552;-122.600;2023-11-19T07:03:09;21.00;;;17.40;;
1360;SDS011;674;45.552;-122.600;2023-11-19T07:05:38;21.47;;;19.17;;
1360;SDS011;674;45.552;-122.600;2023-11-19T07:08:06;29.10;;;23.00;;
1360;SDS011;674;45.552;-122.600;2023-11-19T07:10:35;23.40;;;19.17;;
1360;SDS011;674;45.552;-122.600;2023-11-19T07:13:03;26.47;;;22.90;;
1360;SDS011;674;45.552;-122.600;2023-11-19T07:15:33;25.73;;;21.67;;
1360;SDS011;674;45.552;-122.600;2023-11-19T07:18:01;31.13;;;24.70;;
1360;SDS011;674;45.552;-122.600;2023-11-19T07:20:30;22.50;;;18.90;;
1360;SDS011;674;45.552;-122.600;2023-11-19T07:23:00;24.17;;;20.60;;
1360;SDS011;674;45.552;-122.600;2023-11-19T07:25:29;31.43;;;27.90;;
1360;SDS011;674;45.552;-122.600;2023-11-19T07:27:57;26.20;;;21.53;;
1360;SDS011;674;45.552;-122.600;2023-11-19T07:30:26;28.70;;;24.50;;
1360;SDS011;674;45.552;-122.600;2023-11-19T07:32:54;29.93;;;24.57;;
1360;SDS011;674;45.552;-122.600;2023-11-19T07:35:23;24.57;;;21.57;;
1360;SDS011;674;45.552;-122.600;2023-11-19T07:37:51;18.57;;;16.57;;
1360;SDS011;674;45.552;-122.600;2023-11-19T07:40:20;19.23;;;17.17;;
1360;SDS011;674;45.552;-122.600;2023-11-19T07:42:48;25.23;;;21.43;;
1360;SDS011;674;45.552;-122.600;2023-11-19T07:45:17;21.03;;;18.90;;
1360;SDS011;674;45.552;-122.600;2023-11-19T07:47:46;22.27;;;19.87;;
1360;SDS011;674;45.552;-122.600;2023-11-19T07:50:14;19.87;;;17.80;;
1360;SDS011;674;45.552;-122.600;2023-11-19T07:52:44;19.30;;;16.80;;
1360;SDS011;674;45.552;-122.600;2023-11-19T07:55:12;19.87;;;16.50;;
1360;SDS011;674;45.552;-122.600;2023-11-19T07:57:41;27.03;;;21.63;;
1360;SDS011;674;45.552;-122.600;2023-11-19T08:00:10;17.70;;;15.83;;
1360;SDS011;674;45.552;-122.600;2023-11-19T08:02:39;19.00;;;15.30;;
1360;SDS011;674;45.552;-122.600;2023-11-19T08:05:08;27.17;;;23.37;;
1360;SDS011;674;45.552;-122.600;2023-11-19T08:07:37;22.83;;;19.07;;
1360;SDS011;674;45.552;-122.600;2023-11-19T08:10:06;18.87;;;16.83;;
1360;SDS011;674;45.552;-122.600;2023-11-19T08:12:37;19.43;;;17.33;;
1360;SDS011;674;45.552;-122.600;2023-11-19T08:15:06;17.30;;;15.03;;
1360;SDS011;674;45.552;-122.600;2023-11-19T08:17:35;20.10;;;17.47;;
1360;SDS011;674;45.552;-122.600;2023-11-19T08:20:04;16.70;;;14.87;;
1360;SDS011;674;45.552;-122.600;2023-11-19T08:22:37;17.20;;;15.00;;
1360;SDS011;674;45.552;-122.600;2023-11-19T08:25:06;16.73;;;14.53;;
1360;SDS011;674;45.552;-122.600;2023-11-19T08:27:35;15.90;;;13.83;;
1360;SDS011;674;45.552;-122.600;2023-11-19T08:30:04;16.13;;;13.53;;
1360;SDS011;674;45.552;-122.600;2023-11-19T08:32:34;14.57;;;13.07;;
1360;SDS011;674;45.552;-122.600;2023-11-19T08:35:03;14.87;;;13.30;;
1360;SDS011;674;45.552;-122.600;2023-11-19T08:37:33;14.87;;;12.33;;
1360;SDS011;674;45.552;-122.600;2023-11-19T08:40:04;15.03;;;13.53;;
1360;SDS011;674;45.552;-122.600;2023-11-19T08:42:34;19.90;;;16.17;;
1360;SDS011;674;45.552;-122.600;2023-11-19T08:45:03;17.30;;;15.50;;
1360;SDS011;674;45.552;-122.600;2023-11-19T08:47:32;14.60;;;13.20;;
1360;SDS011;674;45.552;-122.600;2023-11-19T08:50:02;18.33;;;16.47;;
1360;SDS011;674;45.552;-122.600;2023-11-19T08:52:31;13.67;;;12.37;;
1360;SDS011;674;45.552;-122.600;2023-11-19T08:55:01;13.13;;;11.73;;
1360;SDS011;674;45.552;-122.600;2023-11-19T08:57:30;13.07;;;11.40;;
1360;SDS011;674;45.552;-122.600;2023-11-19T09:00:00;14.60;;;12.97;;
1360;SDS011;674;45.552;-122.600;2023-11-19T09:02:28;13.37;;;12.00;;
1360;SDS011;674;45.552;-122.600;2023-11-19T09:04:57;17.50;;;14.73;;
1360;SDS011;674;45.552;-122.600;2023-11-19T09:07:26;11.83;;;10.63;;
1360;SDS011;674;45.552;-122.600;2023-11-19T09:09:54;16.00;;;14.40;;
1360;SDS011;674;45.552;-122.600;2023-11-19T09:12:23;14.93;;;12.63;;
1360;SDS011;674;45.552;-122.600;2023-11-19T09:14:51;12.77;;;11.47;;
1360;SDS011;674;45.552;-122.600;2023-11-19T09:17:20;13.87;;;12.37;;
1360;SDS011;674;45.552;-122.600;2023-11-19T09:19:48;12.00;;;10.80;;
1360;SDS011;674;45.552;-122.600;2023-11-19T09:22:17;16.70;;;14.77;;
1360;SDS011;674;45.552;-122.600;2023-11-19T09:24:46;15.40;;;13.80;;
1360;SDS011;674;45.552;-122.600;2023-11-19T09:27:15;16.20;;;13.03;;
1360;SDS011;674;45.552;-122.600;2023-11-19T09:29:44;12.50;;;10.93;;
1360;SDS011;674;45.552;-122.600;2023-11-19T09:32:14;13.60;;;12.20;;
1360;SDS011;674;45.552;-122.600;2023-11-19T09:34:42;14.37;;;12.83;;
1360;SDS011;674;45.552;-122.600;2023-11-19T09:37:11;18.60;;;15.90;;
1360;SDS011;674;45.552;-122.600;2023-11-19T09:39:42;14.20;;;12.70;;
1360;SDS011;674;45.552;-122.600;2023-11-19T09:42:11;13.47;;;12.17;;
1360;SDS011;674;45.552;-122.600;2023-11-19T09:44:40;17.00;;;14.80;;
1360;SDS011;674;45.552;-122.600;2023-11-19T09:47:11;12.73;;;11.47;;
1360;SDS011;674;45.552;-122.600;2023-11-19T09:49:41;12.00;;;10.70;;
1360;SDS011;674;45.552;-122.600;2023-11-19T09:52:10;15.37;;;13.10;;
1360;SDS011;674;45.552;-122.600;2023-11-19T09:54:39;15.07;;;9.80;;
1360;SDS011;674;45.552;-122.600;2023-11-19T09:57:08;10.47;;;8.50;;
1360;SDS011;674;45.552;-122.600;2023-11-19T09:59:38;7.90;;;6.30;;
1360;SDS011;674;45.552;-122.600;2023-11-19T10:02:08;7.80;;;6.00;;
1360;SDS011;674;45.552;-122.600;2023-11-19T10:04:37;4.70;;;4.27;;
1360;SDS011;674;45.552;-122.600;2023-11-19T10:07:07;6.40;;;5.40;;
1360;SDS011;674;45.552;-122.600;2023-11-19T10:09:36;5.53;;;4.90;;
1360;SDS011;674;45.552;-122.600;2023-11-19T10:12:04;7.20;;;5.07;;
1360;SDS011;674;45.552;-122.600;2023-11-19T10:14:33;8.33;;;5.07;;
1360;SDS011;674;45.552;-122.600;2023-11-19T10:17:07;8.63;;;6.37;;
1360;SDS011;674;45.552;-122.600;2023-11-19T10:19:36;7.03;;;5.10;;
1360;SDS011;674;45.552;-122.600;2023-11-19T10:22:09;6.97;;;4.90;;
1360;SDS011;674;45.552;-122.600;2023-11-19T10:24:38;8.53;;;5.40;;
1360;SDS011;674;45.552;-122.600;2023-11-19T10:27:15;6.90;;;5.17;;
1360;SDS011;674;45.552;-122.600;2023-11-19T10:29:47;6.80;;;5.57;;
1360;SDS011;674;45.552;-122.600;2023-11-19T10:32:16;6.00;;;5.10;;
1360;SDS011;674;45.552;-122.600;2023-11-19T10:35:01;6.50;;;5.80;;
1360;SDS011;674;45.552;-122.600;2023-11-19T10:37:36;7.80;;;5.43;;
1360;SDS011;674;45.552;-122.600;2023-11-19T10:40:05;11.17;;;5.53;;
1360;SDS011;674;45.552;-122.600;2023-11-19T10:42:34;8.37;;;5.70;;
1360;SDS011;674;45.552;-122.600;2023-11-19T10:45:03;9.43;;;6.07;;
1360;SDS011;674;45.552;-122.600;2023-11-19T10:47:32;10.20;;;6.57;;
1360;SDS011;674;45.552;-122.600;2023-11-19T10:50:04;11.03;;;6.33;;
1360;SDS011;674;45.552;-122.600;2023-11-19T10:52:34;7.30;;;5.53;;
1360;SDS011;674;45.552;-122.600;2023-11-19T10:55:03;9.37;;;5.60;;
1360;SDS011;674;45.552;-122.600;2023-11-19T10:57:34;9.40;;;5.53;;
1360;SDS011;674;45.552;-122.600;2023-11-19T11:00:06;8.83;;;5.40;;
1360;SDS011;674;45.552;-122.600;2023-11-19T11:02:40;9.93;;;5.77;;
1360;SDS011;674;45.552;-122.600;2023-11-19T11:05:12;8.23;;;5.83;;
1360;SDS011;674;45.552;-122.600;2023-11-19T11:07:44;9.70;;;5.97;;
1360;SDS011;674;45.552;-122.600;2023-11-19T11:10:13;7.73;;;5.40;;
1360;SDS011;674;45.552;-122.600;2023-11-19T11:12:43;10.03;;;5.20;;
1360;SDS011;674;45.552;-122.600;2023-11-19T11:15:14;11.83;;;6.67;;
1360;SDS011;674;45.552;-122.600;2023-11-19T11:17:44;8.90;;;5.90;;
1360;SDS011;674;45.552;-122.600;2023-11-19T11:20:14;16.57;;;7.50;;
1360;SDS011;674;45.552;-122.600;2023-11-19T11:22:59;9.20;;;4.90;;
1360;SDS011;674;45.552;-122.600;2023-11-19T11:37:30;10.37;;;4.37;;
1360;SDS011;674;45.552;-122.600;2023-11-19T11:40:02;13.03;;;5.83;;
1360;SDS011;674;45.552;-122.600;2023-11-19T11:42:37;10.53;;;4.67;;
1360;SDS011;674;45.552;-122.600;2023-11-19T11:45:10;10.07;;;5.10;;
1360;SDS011;674;45.552;-122.600;2023-11-19T11:50:15;12.47;;;4.80;;
1360;SDS011;674;45.552;-122.600;2023-11-19T11:55:36;17.40;;;5.53;;
1360;SDS011;674;45.552;-122.600;2023-11-19T11:58:19;8.17;;;4.20;;
1360;SDS011;674;45.552;-122.600;2023-11-19T12:00:49;15.27;;;4.97;;
1360;SDS011;674;45.552;-122.600;2023-11-19T12:03:20;13.33;;;4.07;;
1360;SDS011;674;45.552;-122.600;2023-11-19T12:05:49;12.20;;;4.00;;
1360;SDS011;674;45.552;-122.600;2023-11-19T12:08:19;16.30;;;4.87;;
1360;SDS011;674;45.552;-122.600;2023-11-19T12:10:53;19.03;;;5.23;;
1360;SDS011;674;45.552;-122.600;2023-11-19T12:16:29;11.93;;;5.03;;
1360;SDS011;674;45.552;-122.600;2023-11-19T12:19:04;14.10;;;4.80;;
1360;SDS011;674;45.552;-122.600;2023-11-19T12:21:34;14.80;;;4.50;;
1360;SDS011;674;45.552;-122.600;2023-11-19T12:24:05;7.87;;;4.30;;
1360;SDS011;674;45.552;-122.600;2023-11-19T12:26:36;12.50;;;4.33;;
1360;SDS011;674;45.552;-122.600;2023-11-19T12:29:06;14.33;;;4.50;;
1360;SDS011;674;45.552;-122.600;2023-11-19T12:31:36;14.53;;;4.83;;
1360;SDS011;674;45.552;-122.600;2023-11-19T12:34:05;8.73;;;3.87;;
1360;SDS011;674;45.552;-122.600;2023-11-19T12:36:40;14.93;;;5.00;;
1360;SDS011;674;45.552;-122.600;2023-11-19T12:39:09;26.73;;;5.10;;
1360;SDS011;674;45.552;-122.600;2023-11-19T12:41:49;15.50;;;4.10;;
1360;SDS011;674;45.552;-122.600;2023-11-19T12:44:20;12.20;;;4.40;;
1360;SDS011;674;45.552;-122.600;2023-11-19T12:47:04;19.60;;;4.50;;
1360;SDS011;674;45.552;-122.600;2023-11-19T12:49:38;13.13;;;4.43;;
1360;SDS011;674;45.552;-122.600;2023-11-19T12:52:13;10.40;;;4.17;;
1360;SDS011;674;45.552;-122.600;2023-11-19T12:54:42;16.50;;;4.30;;
1360;SDS011;674;45.552;-122.600;2023-11-19T12:57:10;16.53;;;4.30;;
1360;SDS011;674;45.552;-122.600;2023-11-19T12:59:40;10.63;;;3.83;;
1360;SDS011;674;45.552;-122.600;2023-11-19T13:02:08;12.10;;;3.47;;
1360;SDS011;674;45.552;-122.600;2023-11-19T13:04:37;8.80;;;3.43;;
1360;SDS011;674;45.552;-122.600;2023-11-19T13:07:05;10.70;;;4.53;;
1360;SDS011;674;45.552;-122.600;2023-11-19T13:09:34;9.80;;;3.70;;
1360;SDS011;674;45.552;-122.600;2023-11-19T13:12:12;10.00;;;3.57;;
1360;SDS011;674;45.552;-122.600;2023-11-19T13:14:42;7.90;;;2.90;;
1360;SDS011;674;45.552;-122.600;2023-11-19T13:17:13;6.70;;;3.17;;
1360;SDS011;674;45.552;-122.600;2023-11-19T13:19:42;11.87;;;3.40;;
1360;SDS011;674;45.552;-122.600;2023-11-19T13:22:11;11.67;;;3.83;;
1360;SDS011;674;45.552;-122.600;2023-11-19T13:24:39;9.13;;;3.10;;
1360;SDS011;674;45.552;-122.600;2023-11-19T13:27:10;6.33;;;3.10;;
1360;SDS011;674;45.552;-122.600;2023-11-19T13:29:38;8.67;;;3.17;;
1360;SDS011;674;45.552;-122.600;2023-11-19T13:32:07;8.60;;;2.90;;
1360;SDS011;674;45.552;-122.600;2023-11-19T13:34:35;6.63;;;3.13;;
1360;SDS011;674;45.552;-122.600;2023-11-19T13:37:04;8.77;;;3.20;;
1360;SDS011;674;45.552;-122.600;2023-11-19T13:39:33;10.37;;;2.63;;
1360;SDS011;674;45.552;-122.600;2023-11-19T13:42:01;11.03;;;4.10;;
1360;SDS011;674;45.552;-122.600;2023-11-19T13:44:33;13.13;;;4.80;;
1360;SDS011;674;45.552;-122.600;2023-11-19T13:47:02;17.57;;;5.07;;
1360;SDS011;674;45.552;-122.600;2023-11-19T13:49:30;8.83;;;4.10;;
1360;SDS011;674;45.552;-122.600;2023-11-19T13:51:59;12.70;;;4.30;;
1360;SDS011;674;45.552;-122.600;2023-11-19T13:54:27;18.27;;;5.53;;
1360;SDS011;674;45.552;-122.600;2023-11-19T13:56:56;16.07;;;5.40;;
1360;SDS011;674;45.552;-122.600;2023-11-19T13:59:28;12.10;;;4.37;;
1360;SDS011;674;45.552;-122.600;2023-11-19T14:01:56;7.13;;;3.87;;
1360;SDS011;674;45.552;-122.600;2023-11-19T14:04:25;12.27;;;4.90;;
1360;SDS011;674;45.552;-122.600;2023-11-19T14:06:54;12.60;;;4.50;;
1360;SDS011;674;45.552;-122.600;2023-11-19T14:09:23;7.70;;;3.33;;
1360;SDS011;674;45.552;-122.600;2023-11-19T14:11:51;9.10;;;3.60;;
1360;SDS011;674;45.552;-122.600;2023-11-19T14:14:20;13.40;;;4.30;;
1360;SDS011;674;45.552;-122.600;2023-11-19T14:16:49;10.23;;;3.57;;
1360;SDS011;674;45.552;-122.600;2023-11-19T14:19:17;7.40;;;2.83;;
1360;SDS011;674;45.552;-122.600;2023-11-19T14:21:46;10.57;;;3.50;;
1360;SDS011;674;45.552;-122.600;2023-11-19T14:24:15;9.23;;;3.50;;
1360;SDS011;674;45.552;-122.600;2023-11-19T14:26:45;12.37;;;4.00;;
1360;SDS011;674;45.552;-122.600;2023-11-19T14:29:19;11.97;;;4.23;;
1360;SDS011;674;45.552;-122.600;2023-11-19T14:31:48;12.40;;;4.33;;
1360;SDS011;674;45.552;-122.600;2023-11-19T14:34:16;9.03;;;4.13;;
1360;SDS011;674;45.552;-122.600;2023-11-19T14:36:45;11.83;;;4.80;;
1360;SDS011;674;45.552;-122.600;2023-11-19T14:39:14;17.27;;;5.53;;
1360;SDS011;674;45.552;-122.600;2023-11-19T14:41:43;16.33;;;4.70;;
1360;SDS011;674;45.552;-122.600;2023-11-19T14:44:12;12.50;;;4.97;;
1360;SDS011;674;45.552;-122.600;2023-11-19T14:46:40;22.90;;;5.53;;
1360;SDS011;674;45.552;-122.600;2023-11-19T14:49:09;16.50;;;4.57;;
1360;SDS011;674;45.552;-122.600;2023-11-19T14:51:38;14.13;;;5.90;;
1360;SDS011;674;45.552;-122.600;2023-11-19T14:54:06;15.93;;;4.90;;
1360;SDS011;674;45.552;-122.600;2023-11-19T14:56:35;17.57;;;5.57;;
1360;SDS011;674;45.552;-122.600;2023-11-19T14:59:05;10.27;;;4.27;;
1360;SDS011;674;45.552;-122.600;2023-11-19T15:01:34;21.43;;;6.30;;
1360;SDS011;674;45.552;-122.600;2023-11-19T15:04:03;12.23;;;4.73;;
1360;SDS011;674;45.552;-122.600;2023-11-19T15:06:32;13.60;;;3.70;;
1360;SDS011;674;45.552;-122.600;2023-11-19T15:09:01;17.20;;;5.53;;
1360;SDS011;674;45.552;-122.600;2023-11-19T15:11:30;9.93;;;4.17;;